Overview Statistics Trail Chart Weather Telemetry Raw packets
 

This is the latest recevied weather packets stored in our database for station/object DOUGLAS. If no packets are shown the sender has not sent any weather packets the latest 10 day(s).

<< 31 32 33 34 35 36 37 >>
Time Temp. Humidity Pressure Rain* Wind** Luminosity Snow
1788126004 18.89° C 62% 0 hPa - - - -
1788125404 18.89° C 59% 0 hPa - - - -
1788124807 17.22° C 67% 0 hPa - - - -
1788124203 17.78° C 63% 0 hPa - - - -
1788123603 17.22° C 70% 0 hPa - - - -
1788123003 17.22° C 73% 0 hPa - - - -
1788122403 17.78° C 66% 0 hPa - - - -
1788121804 17.22° C 71% 0 hPa - - - -
1788121203 17.22° C 71% 0 hPa - - - -
1788120603 17.78° C 64% 0 hPa - - - -
1788120003 16.67° C 65% 0 hPa - - - -
1788119403 18.33° C 58% 0 hPa - - - -
1788118804 17.22° C 63% 0 hPa - - - -
1788118204 16.11° C 71% 0 hPa - - - -
1788117603 17.22° C 67% 0 hPa - - - -
1788117003 16.67° C 65% 0 hPa - - - -
1788116403 17.22° C 60% 0 hPa - - - -
1788115803 16.67° C 62% 0 hPa - - - -
1788115203 16.11° C 67% 0 hPa - - - -
1788114603 17.78° C 59% 0 hPa - - - -
1788114008 16.67° C 64% 0 hPa - - - -
1788113403 16.67° C 62% 0 hPa - - - -
1788112804 16.67° C 63% 0 hPa - - - -
1788112203 16.11° C 70% 0 hPa - - - -
1788111603 15.56° C 70% 0 hPa - - - -

* Rain since midnight (hover to see other rain measurements)
** Current wind speed in m/s (hover to see current wind gust speed)